createdAt,value
2022-08-30T00:03:46.247Z,101590.63
2022-08-30T00:07:48.049Z,101590.19
2022-08-30T00:11:52.124Z,101591.66
2022-08-30T00:15:53.949Z,101596.03
2022-08-30T00:19:55.995Z,101601.69
2022-08-30T00:23:57.495Z,101603.66
2022-08-30T00:27:59.216Z,101606.28
2022-08-30T00:32:02.408Z,101608.78
2022-08-30T00:36:04.391Z,101609.34
2022-08-30T00:40:09.675Z,101606.81
2022-08-30T00:44:11.216Z,101607.91
2022-08-30T00:48:12.777Z,101608.63
2022-08-30T00:52:16.240Z,101604.66
2022-08-30T00:56:18.823Z,101602.50
2022-08-30T01:00:20.826Z,101610.81
2022-08-30T01:04:25.838Z,101615.34
2022-08-30T01:08:27.286Z,101618.22
2022-08-30T01:12:30.028Z,101622.84
2022-08-30T01:16:33.638Z,101623.78
2022-08-30T01:20:45.893Z,101616.63
2022-08-30T01:24:50.432Z,101622.25
2022-08-30T01:28:55.238Z,101614.91
2022-08-30T01:33:00.529Z,101618.94
2022-08-30T01:37:02.207Z,101613.25
2022-08-30T01:41:16.700Z,101623.19
2022-08-30T01:45:18.223Z,101615.78
2022-08-30T01:49:27.734Z,101623.94
2022-08-30T01:53:29.554Z,101623.19
2022-08-30T01:57:31.197Z,101622.28
2022-08-30T02:01:36.887Z,101616.47
2022-08-30T02:05:38.530Z,101619.94
2022-08-30T02:09:40.181Z,101608.97
2022-08-30T02:13:43.062Z,101602.53
2022-08-30T02:17:45.883Z,101603.72
2022-08-30T02:21:47.285Z,101607.34
2022-08-30T02:25:48.757Z,101609.94
2022-08-30T02:29:50.261Z,101593.28
2022-08-30T02:33:53.141Z,101597.47
2022-08-30T02:37:54.617Z,101600.06
2022-08-30T02:41:56.952Z,101593.66
2022-08-30T02:45:58.466Z,101603.13
2022-08-30T02:50:00.107Z,101609.91
2022-08-30T02:54:01.608Z,101607.31
2022-08-30T02:58:03.351Z,101593.91
2022-08-30T03:02:04.877Z,101596.75
2022-08-30T03:06:06.755Z,101598.50
2022-08-30T03:10:09.463Z,101594.31
2022-08-30T03:14:10.999Z,101601.22
2022-08-30T03:18:12.469Z,101597.75
2022-08-30T03:22:13.910Z,101608.53
2022-08-30T03:26:15.353Z,101613.72
2022-08-30T03:30:18.438Z,101607.66
2022-08-30T03:34:19.983Z,101611.13
2022-08-30T03:38:21.484Z,101616.13
2022-08-30T03:42:24.205Z,101618.19
2022-08-30T03:46:26.965Z,101618.22
2022-08-30T03:50:31.295Z,101622.53
2022-08-30T03:54:32.815Z,101621.38
2022-08-30T03:58:35.180Z,101623.00
2022-08-30T04:02:36.739Z,101631.44
2022-08-30T04:06:38.252Z,101637.97
2022-08-30T04:10:39.692Z,101634.66
2022-08-30T04:14:41.398Z,101639.38
2022-08-30T04:18:43.258Z,101632.44
2022-08-30T04:22:44.725Z,101638.19
2022-08-30T04:26:46.291Z,101636.25
2022-08-30T04:30:47.937Z,101645.56
2022-08-30T04:34:49.560Z,101639.25
2022-08-30T04:38:51.469Z,101641.69
2022-08-30T04:42:54.473Z,101646.41
2022-08-30T04:46:55.948Z,101644.00
2022-08-30T04:50:57.402Z,101643.81
2022-08-30T04:54:59.453Z,101638.75
2022-08-30T04:59:01.533Z,101653.44
2022-08-30T05:03:04.162Z,101655.59
2022-08-30T05:07:05.591Z,101662.50
2022-08-30T05:11:08.383Z,101659.88
2022-08-30T05:15:11.174Z,101662.59
2022-08-30T05:19:12.635Z,101671.72
2022-08-30T05:23:14.110Z,101669.91
2022-08-30T05:27:15.760Z,101674.06
2022-08-30T05:31:21.248Z,101682.06
2022-08-30T05:35:25.717Z,101673.84
2022-08-30T05:39:27.374Z,101669.78
2022-08-30T05:43:46.861Z,101677.41
2022-08-30T05:47:48.436Z,101693.84
2022-08-30T05:51:49.937Z,101688.53
2022-08-30T05:55:51.578Z,101699.56
2022-08-30T05:59:53.086Z,101696.19
2022-08-30T06:03:59.311Z,101688.59
2022-08-30T06:08:03.541Z,101685.69
2022-08-30T06:12:05.220Z,101683.00
2022-08-30T06:16:07.196Z,101682.16
2022-08-30T06:20:09.291Z,101686.22
2022-08-30T06:24:11.620Z,101689.03
2022-08-30T06:28:13.313Z,101686.91
2022-08-30T06:32:14.824Z,101690.59
2022-08-30T06:36:22.020Z,101706.41
2022-08-30T06:40:23.636Z,101704.56
2022-08-30T06:44:25.175Z,101701.25
2022-08-30T06:48:26.658Z,101703.75
2022-08-30T06:52:28.147Z,101699.44
2022-08-30T06:56:32.654Z,101699.88
2022-08-30T07:00:34.179Z,101707.94
2022-08-30T07:04:38.722Z,101702.00
2022-08-30T07:08:41.406Z,101706.34
2022-08-30T07:12:42.862Z,101704.38
2022-08-30T07:16:45.409Z,101703.03
2022-08-30T07:20:46.956Z,101711.84
2022-08-30T07:24:48.483Z,101705.38
2022-08-30T07:28:52.264Z,101708.19
2022-08-30T07:32:57.975Z,101709.16
2022-08-30T07:36:59.601Z,101716.75
2022-08-30T07:41:01.322Z,101718.44
2022-08-30T07:45:03.406Z,101716.41
2022-08-30T07:49:11.160Z,101731.47
2022-08-30T07:53:13.412Z,101729.88
2022-08-30T07:57:15.972Z,101734.53
2022-08-30T08:01:19.165Z,101735.13
2022-08-30T08:05:24.620Z,101727.47
2022-08-30T08:09:26.573Z,101740.72
2022-08-30T08:13:28.549Z,101733.09
2022-08-30T08:17:34.441Z,101730.69
2022-08-30T08:21:37.071Z,101734.75
2022-08-30T08:25:40.808Z,101732.31
2022-08-30T08:29:42.320Z,101731.81
2022-08-30T08:33:44.375Z,101741.16
2022-08-30T08:37:45.885Z,101748.81
2022-08-30T08:41:56.032Z,101743.59
2022-08-30T08:46:12.446Z,101746.84
2022-08-30T08:50:18.497Z,101749.97
2022-08-30T08:54:27.543Z,101747.03
2022-08-30T08:58:32.502Z,101755.31
2022-08-30T09:02:55.807Z,101756.09
2022-08-30T09:07:03.900Z,101765.94
2022-08-30T09:11:11.146Z,101763.13
2022-08-30T09:15:30.218Z,101757.09
2022-08-30T09:19:45.267Z,101764.44
2022-08-30T09:23:50.374Z,101772.53
2022-08-30T09:27:54.061Z,101767.69
2022-08-30T09:32:25.254Z,101772.50
2022-08-30T09:36:25.527Z,101768.53
2022-08-30T09:40:41.710Z,101767.59
2022-08-30T09:44:43.183Z,101768.44
2022-08-30T09:48:46.283Z,101761.09
2022-08-30T09:53:23.448Z,101757.84
2022-08-30T09:58:02.145Z,101755.94
2022-08-30T10:02:23.640Z,101765.94
2022-08-30T10:06:49.298Z,101758.66
2022-08-30T10:11:05.775Z,101759.56
2022-08-30T10:15:07.734Z,101757.53
2022-08-30T10:19:35.649Z,101758.00
2022-08-30T10:23:49.500Z,101762.38
2022-08-30T10:28:27.704Z,101757.50
2022-08-30T10:32:35.818Z,101764.84
2022-08-30T10:36:46.793Z,101757.91
2022-08-30T10:41:13.346Z,101761.81
2022-08-30T10:45:17.431Z,101755.09
2022-08-30T10:49:22.375Z,101754.69
2022-08-30T10:53:46.981Z,101750.63
2022-08-30T10:57:48.921Z,101744.09
2022-08-30T11:02:28.202Z,101746.19
2022-08-30T11:06:53.843Z,101754.66
2022-08-30T11:11:14.436Z,101742.16
2022-08-30T11:15:24.934Z,101751.59
2022-08-30T11:19:32.185Z,101748.25
2022-08-30T11:23:36.016Z,101742.34
2022-08-30T11:27:51.335Z,101742.56
2022-08-30T11:31:55.214Z,101738.00
2022-08-30T11:35:56.843Z,101739.00
2022-08-30T11:40:04.351Z,101727.66
2022-08-30T11:44:26.096Z,101727.44
2022-08-30T11:48:54.359Z,101723.06
2022-08-30T11:53:20.037Z,101716.78
2022-08-30T11:57:30.946Z,101715.25
2022-08-30T12:01:50.603Z,101718.13
2022-08-30T12:06:06.378Z,101708.84
2022-08-30T12:10:23.429Z,101719.41
2022-08-30T12:14:49.208Z,101705.81
2022-08-30T12:19:00.163Z,101706.78
2022-08-30T12:23:18.263Z,101696.94
2022-08-30T12:27:25.358Z,101693.88
2022-08-30T12:31:26.970Z,101692.13
2022-08-30T12:35:28.833Z,101683.00
2022-08-30T12:39:34.001Z,101679.47
2022-08-30T12:43:47.200Z,101681.59
2022-08-30T12:47:55.845Z,101678.72
2022-08-30T12:52:28.720Z,101672.59
2022-08-30T12:56:54.065Z,101675.84
2022-08-30T13:01:26.601Z,101671.66
2022-08-30T13:05:34.173Z,101660.44
2022-08-30T13:09:35.567Z,101651.38
2022-08-30T13:13:38.292Z,101657.81
2022-08-30T13:17:40.107Z,101659.06
2022-08-30T13:22:24.075Z,101648.16
2022-08-30T13:26:31.147Z,101649.16
2022-08-30T13:30:33.441Z,101642.31
2022-08-30T13:34:36.225Z,101637.84
2022-08-30T13:38:37.669Z,101642.06
2022-08-30T13:42:41.961Z,101635.88
2022-08-30T13:46:54.080Z,101629.22
2022-08-30T13:50:57.023Z,101633.81
2022-08-30T13:54:58.625Z,101625.59
2022-08-30T13:59:02.793Z,101625.81
2022-08-30T14:03:04.583Z,101625.88
2022-08-30T14:07:16.803Z,101634.56
2022-08-30T14:11:22.780Z,101627.75
2022-08-30T14:15:24.605Z,101634.69
2022-08-30T14:19:26.337Z,101628.22
2022-08-30T14:23:28.482Z,101627.53
2022-08-30T14:27:30.588Z,101631.25
2022-08-30T14:31:33.484Z,101636.03
2022-08-30T14:35:35.240Z,101628.75
2022-08-30T14:39:36.855Z,101639.56
2022-08-30T14:43:40.687Z,101639.66
2022-08-30T14:47:42.269Z,101635.38
2022-08-30T14:51:46.341Z,101639.53
2022-08-30T14:55:47.790Z,101635.97
2022-08-30T14:59:49.375Z,101643.69
2022-08-30T15:03:51.111Z,101640.41
2022-08-30T15:07:52.946Z,101637.03
2022-08-30T15:11:58.727Z,101639.13
2022-08-30T15:16:00.533Z,101638.09
2022-08-30T15:20:02.209Z,101644.19
2022-08-30T15:24:05.370Z,101642.03
2022-08-30T15:28:07.797Z,101652.91
2022-08-30T15:32:09.331Z,101644.19
2022-08-30T15:36:11.759Z,101637.00
2022-08-30T15:40:13.656Z,101638.84
2022-08-30T15:44:15.906Z,101634.44
2022-08-30T15:48:17.493Z,101637.06
2022-08-30T15:52:19.366Z,101636.59
2022-08-30T15:56:21.195Z,101632.44
2022-08-30T16:00:22.624Z,101631.34
2022-08-30T16:04:24.718Z,101627.19
2022-08-30T16:08:27.676Z,101634.06
2022-08-30T16:12:29.118Z,101629.56
2022-08-30T16:16:31.113Z,101626.97
2022-08-30T16:20:32.719Z,101623.25
2022-08-30T16:24:34.484Z,101625.66
2022-08-30T16:28:36.842Z,101623.75
2022-08-30T16:32:39.787Z,101625.69
2022-08-30T16:36:42.545Z,101623.84
2022-08-30T16:40:44.275Z,101614.97
2022-08-30T16:44:45.779Z,101614.22
2022-08-30T16:48:47.458Z,101619.56
2022-08-30T16:52:49.874Z,101610.22
2022-08-30T16:56:51.683Z,101603.78
2022-08-30T17:00:53.160Z,101604.44
2022-08-30T17:04:54.705Z,101609.84
2022-08-30T17:08:56.727Z,101614.22
2022-08-30T17:12:58.574Z,101618.66
2022-08-30T17:17:00.792Z,101615.63
2022-08-30T17:25:04.788Z,101621.72
2022-08-30T17:29:07.804Z,101630.75
2022-08-30T17:33:11.055Z,101623.22
2022-08-30T17:37:12.687Z,101638.03
2022-08-30T17:41:14.448Z,101643.78
2022-08-30T17:45:17.174Z,101642.59
2022-08-30T17:49:18.707Z,101649.44
2022-08-30T17:53:20.857Z,101652.28
2022-08-30T17:57:22.334Z,101648.69
2022-08-30T18:01:24.164Z,101663.16
2022-08-30T18:05:25.762Z,101656.72
2022-08-30T18:09:31.803Z,101655.50
2022-08-30T18:13:35.475Z,101669.19
2022-08-30T18:17:36.934Z,101668.75
2022-08-30T18:21:38.830Z,101674.78
2022-08-30T18:25:40.544Z,101692.69
2022-08-30T18:29:42.980Z,101691.09
2022-08-30T18:33:44.676Z,101694.28
2022-08-30T18:37:46.218Z,101695.56
2022-08-30T18:41:48.377Z,101702.00
2022-08-30T18:45:50.298Z,101704.38
2022-08-30T18:49:54.731Z,101697.56
2022-08-30T18:53:56.269Z,101707.03
2022-08-30T18:57:57.725Z,101701.94
2022-08-30T19:01:59.278Z,101701.56
2022-08-30T19:06:09.106Z,101694.84
2022-08-30T19:10:13.204Z,101696.97
2022-08-30T19:14:14.733Z,101697.47
2022-08-30T19:18:17.091Z,101694.16
2022-08-30T19:22:21.353Z,101688.22
2022-08-30T19:26:23.363Z,101693.47
2022-08-30T19:30:30.241Z,101692.81
2022-08-30T19:34:31.888Z,101701.69
2022-08-30T19:38:35.654Z,101695.72
2022-08-30T19:42:43.330Z,101696.88
2022-08-30T19:46:47.657Z,101705.19
2022-08-30T19:50:49.448Z,101694.72
2022-08-30T19:54:50.996Z,101695.81
2022-08-30T19:58:52.690Z,101695.28
2022-08-30T20:02:54.150Z,101701.00
2022-08-30T20:06:56.720Z,101706.00
2022-08-30T20:10:58.427Z,101711.22
2022-08-30T20:15:01.349Z,101707.22
2022-08-30T20:19:04.114Z,101710.38
2022-08-30T20:23:05.776Z,101709.91
2022-08-30T20:27:07.355Z,101711.75
2022-08-30T20:31:10.831Z,101714.91
2022-08-30T20:35:15.209Z,101712.44
2022-08-30T20:39:17.632Z,101719.53
2022-08-30T20:43:21.814Z,101710.44
2022-08-30T20:47:23.592Z,101723.59
2022-08-30T20:51:27.434Z,101716.09
2022-08-30T20:55:29.155Z,101723.38
2022-08-30T20:59:31.399Z,101724.81
2022-08-30T21:03:32.931Z,101718.97
2022-08-30T21:07:34.682Z,101728.81
2022-08-30T21:11:37.223Z,101736.63
2022-08-30T21:15:38.872Z,101741.13
2022-08-30T21:19:43.858Z,101735.69
2022-08-30T21:23:45.570Z,101739.56
2022-08-30T21:27:47.140Z,101736.19
2022-08-30T21:31:48.585Z,101733.25
2022-08-30T21:36:08.596Z,101736.47
2022-08-30T21:40:11.192Z,101746.25
2022-08-30T21:44:19.909Z,101747.50
2022-08-30T21:48:21.345Z,101749.69
2022-08-30T21:52:23.013Z,101748.19
2022-08-30T21:56:24.690Z,101748.88
2022-08-30T22:00:26.510Z,101759.72
2022-08-30T22:04:28.697Z,101758.84
2022-08-30T22:08:30.152Z,101752.88
2022-08-30T22:12:31.800Z,101757.38
2022-08-30T22:16:33.752Z,101765.31
2022-08-30T22:20:35.257Z,101762.94
2022-08-30T22:24:36.975Z,101760.84
2022-08-30T22:28:38.511Z,101757.72
2022-08-30T22:32:40.070Z,101751.50
2022-08-30T22:36:41.698Z,101754.97
2022-08-30T22:40:48.524Z,101752.34
2022-08-30T22:44:51.699Z,101754.47
2022-08-30T22:48:53.107Z,101752.41
2022-08-30T22:52:54.557Z,101756.34
2022-08-30T22:56:56.046Z,101756.94
2022-08-30T23:00:57.585Z,101766.72
2022-08-30T23:05:03.427Z,101769.00
2022-08-30T23:09:06.702Z,101769.53
2022-08-30T23:13:08.184Z,101776.72
2022-08-30T23:17:09.897Z,101777.06
2022-08-30T23:21:13.305Z,101771.53
2022-08-30T23:25:41.236Z,101774.88
2022-08-30T23:30:02.182Z,101769.03
2022-08-30T23:34:21.915Z,101779.03
2022-08-30T23:38:42.167Z,101778.16
2022-08-30T23:43:02.611Z,101772.44
2022-08-30T23:47:22.894Z,101772.16
2022-08-30T23:51:43.281Z,101781.63
2022-08-30T23:56:03.101Z,101776.63
